Time;durP1;ratioP1;P1;durP2;ratioP2;P2;SDS_P1;SDS_P2;PMS_P1;PMS_P2;Temp;Humidity;BMP_temperature;BMP_pressure;BME280_temperature;BME280_humidity;BME280_pressure;Samples;Min_cycle;Max_cycle;Signal;HPM_P1;HPM_P2
2023/07/24 00:02:29;;;;;;;4.95;2.90;;;;;;;14.50;57.65;100237.09;4964792;28;20057;-74
2023/07/24 00:05:09;;;;;;;5.85;2.33;;;;;;;14.35;58.41;100229.28;4962895;28;20205;-71
2023/07/24 00:08:02;;;;;;;6.03;3.42;;;;;;;14.58;57.71;100233.97;4969037;28;20416;-72
2023/07/24 00:10:50;;;;;;;6.43;3.20;;;;;;;14.35;58.73;100223.19;4950760;28;20069;-74
2023/07/24 00:14:02;;;;;;;;;;;;;;;;;;;;;
2023/07/24 00:17:04;;;;;;;5.65;3.17;;;;;;;14.29;59.31;100210.44;4961949;28;20050;-75
2023/07/24 00:19:33;;;;;;;7.82;3.65;;;;;;;14.14;60.06;100215.78;4964843;28;20459;-75
2023/07/24 00:22:23;;;;;;;;;;;;;;;;;;;;;
2023/07/24 00:25:10;;;;;;;;;;;;;;;;;;;;;
2023/07/24 00:27:51;;;;;;;8.43;4.00;;;;;;;14.06;60.55;100214.59;4964867;28;20045;-74
2023/07/24 00:33:24;;;;;;;7.25;3.17;;;;;;;14.31;59.51;100211.19;4977137;28;20042;-75
2023/07/24 00:39:31;;;;;;;;;;;;;;;14.45;59.26;100205.88;4908881;28;20145;-76
2023/07/24 00:42:09;;;;;;;5.28;3.20;;;;;;;14.48;58.51;100207.47;4959781;28;20368;-74
2023/07/24 00:45:08;;;;;;;;;;;;;;;;;;;;;
2023/07/24 00:47:56;;;;;;;6.25;3.53;;;;;;;14.28;59.32;100212.22;4944676;28;20961;-75
2023/07/24 00:50:44;;;;;;;7.03;4.25;;;;;;;14.07;60.11;100214.47;4961317;28;20048;-70
2023/07/24 00:53:19;;;;;;;7.45;3.10;;;;;;;14.33;58.76;100220.66;4912432;28;20038;-72
2023/07/24 00:59:25;;;;;;;8.35;3.83;;;;;;;13.73;60.58;100226.31;4917747;28;20036;-72
2023/07/24 01:02:11;;;;;;;12.18;4.10;;;;;;;13.86;60.16;100226.38;4970646;28;20501;-74
2023/07/24 01:05:07;;;;;;;6.18;3.55;;;;;;;14.21;58.79;100205.72;4968752;28;20042;-71
2023/07/24 01:07:40;;;;;;;6.72;3.00;;;;;;;14.26;58.30;100210.66;4945590;28;20042;-71
2023/07/24 01:10:24;;;;;;;7.22;3.60;;;;;;;14.29;58.11;100211.28;4966432;28;20030;-71
2023/07/24 01:13:24;;;;;;;5.22;3.47;;;;;;;14.39;57.72;100216.78;4918526;28;20108;-70
2023/07/24 01:16:21;;;;;;;11.80;4.35;;;;;;;14.36;57.98;100225.69;4967709;28;20096;-70
2023/07/24 01:19:56;;;;;;;6.47;3.47;;;;;;;14.30;57.97;100228.75;4943614;28;20042;-70
2023/07/24 01:22:48;;;;;;;10.50;3.78;;;;;;;14.23;57.81;100219.59;4957423;28;20100;-70
2023/07/24 01:26:02;;;;;;;7.53;3.50;;;;;;;14.26;57.62;100221.16;4966271;28;20148;-70
2023/07/24 01:28:54;;;;;;;;;;;;;;;;;;;;;
2023/07/24 01:34:43;;;;;;;;;;;;;;;;;;;;;
2023/07/24 01:37:20;;;;;;;6.70;3.65;;;;;;;14.21;57.33;100221.47;4947509;28;20187;-69
2023/07/24 01:40:26;;;;;;;4.93;2.67;;;;;;;14.43;56.76;100214.81;4968440;28;20569;-70
2023/07/24 01:43:10;;;;;;;7.40;3.80;;;;;;;14.33;56.94;100215.38;4938815;28;20122;-70
2023/07/24 01:46:03;;;;;;;6.45;3.38;;;;;;;14.12;57.51;100217.66;4945400;28;20416;-70
2023/07/24 01:48:54;;;;;;;;;;;;;;;;;;;;;
2023/07/24 01:51:54;;;;;;;6.10;3.20;;;;;;;14.03;57.73;100218.25;4967259;28;20041;-68
2023/07/24 01:54:38;;;;;;;;;;;;;;;;;;;;;
2023/07/24 01:57:36;;;;;;;7.57;3.47;;;;;;;13.66;58.59;100211.91;4971638;28;20727;-71
2023/07/24 02:00:05;;;;;;;7.05;3.70;;;;;;;13.97;57.69;100204.69;4960803;28;20420;-70
2023/07/24 02:02:51;;;;;;;5.75;3.65;;;;;;;14.02;57.43;100207.84;4971892;28;20519;-70
2023/07/24 02:05:39;;;;;;;6.72;3.55;;;;;;;14.00;57.48;100209.72;4921602;28;20045;-70
2023/07/24 02:08:51;;;;;;;6.07;3.83;;;;;;;13.83;58.11;100206.41;4965477;28;20393;-70
2023/07/24 02:11:40;;;;;;;;;;;;;;;;;;;;;
2023/07/24 02:14:34;;;;;;;;;;;;;;;;;;;;;
2023/07/24 02:17:33;;;;;;;8.90;3.85;;;;;;;13.92;57.79;100191.84;4950859;28;20849;-70
2023/07/24 02:20:37;;;;;;;9.45;4.35;;;;;;;13.91;57.78;100198.03;4954161;28;20382;-70
2023/07/24 02:23:21;;;;;;;;;;;;;;;;;;;;;
2023/07/24 02:25:59;;;;;;;8.20;4.07;;;;;;;13.59;59.05;100192.22;4973797;28;20060;-70
2023/07/24 02:29:01;;;;;;;10.27;4.10;;;;;;;13.77;58.33;100191.03;4985191;28;20477;-68
2023/07/24 02:31:26;;;;;;;9.88;3.70;;;;;;;13.76;58.57;100186.72;4967267;28;20077;-73
2023/07/24 02:33:52;;;;;;;5.70;4.00;;;;;;;13.80;58.67;100187.38;4969243;28;21660;-73
2023/07/24 02:36:17;;;;;;;9.98;4.43;;;;;;;13.93;58.33;100178.59;4955157;28;20034;-72
2023/07/24 02:38:43;;;;;;;8.82;4.93;;;;;;;13.64;59.54;100188.34;4942753;28;22535;-68
2023/07/24 02:41:09;;;;;;;8.18;4.00;;;;;;;13.30;60.30;100174.72;4971285;28;20680;-68
2023/07/24 02:43:36;;;;;;;10.35;4.75;;;;;;;13.48;59.80;100185.81;4963913;28;20031;-68
2023/07/24 02:46:02;;;;;;;9.85;5.07;;;;;;;13.62;59.51;100184.97;4965633;28;20052;-67
2023/07/24 02:48:28;;;;;;;10.68;4.32;;;;;;;13.63;59.07;100180.56;4957713;28;20591;-66
2023/07/24 02:50:54;;;;;;;11.20;4.55;;;;;;;13.66;59.22;100183.84;4967760;28;20523;-66
2023/07/24 02:53:20;;;;;;;13.00;5.38;;;;;;;13.97;58.64;100178.41;4967799;28;20034;-69
2023/07/24 02:55:46;;;;;;;8.80;4.50;;;;;;;14.07;58.17;100176.84;4966088;28;20713;-69
2023/07/24 02:58:12;;;;;;;9.68;5.07;;;;;;;13.74;59.26;100180.72;4952869;28;20038;-68
2023/07/24 03:00:38;;;;;;;10.68;4.88;;;;;;;13.81;59.22;100184.66;4939701;28;20031;-69
2023/07/24 03:03:04;;;;;;;12.18;5.82;;;;;;;13.43;60.34;100181.78;4950796;28;20465;-68
2023/07/24 03:05:30;;;;;;;10.68;5.53;;;;;;;14.08;58.42;100179.38;4943280;28;20506;-68
2023/07/24 03:07:58;;;;;;;9.35;4.47;;;;;;;14.20;58.57;100180.34;4964310;28;20148;-70
2023/07/24 03:10:23;;;;;;;9.00;4.93;;;;;;;13.96;59.41;100179.34;4947978;28;20126;-70
2023/07/24 03:12:49;;;;;;;10.20;5.68;;;;;;;14.00;59.67;100181.66;4948790;28;20493;-70
2023/07/24 03:15:15;;;;;;;6.93;4.35;;;;;;;14.38;58.63;100180.06;4945876;28;20660;-68
2023/07/24 03:17:40;;;;;;;9.98;5.32;;;;;;;14.51;57.87;100175.69;4943439;28;20157;-70
2023/07/24 03:20:18;;;;;;;13.32;5.35;;;;;;;14.34;58.54;100177.66;4945737;28;20040;-73
2023/07/24 03:22:45;;;;;;;8.55;5.15;;;;;;;14.44;58.53;100171.81;4932733;28;20367;-68
2023/07/24 03:25:10;;;;;;;9.43;5.32;;;;;;;13.72;61.00;100166.88;4960879;28;20038;-66
2023/07/24 03:27:36;;;;;;;11.93;5.60;;;;;;;14.10;60.21;100166.16;4963423;28;20062;-67
2023/07/24 03:30:03;;;;;;;12.45;6.15;;;;;;;14.07;60.16;100171.59;4971579;28;20741;-68
2023/07/24 03:32:28;;;;;;;10.80;6.65;;;;;;;14.19;59.89;100170.78;4962752;28;20035;-73
2023/07/24 03:34:55;;;;;;;14.35;7.15;;;;;;;14.32;59.57;100166.41;4962222;28;20451;-73
2023/07/24 03:37:20;;;;;;;12.27;6.57;;;;;;;14.22;59.98;100165.31;4959881;28;20030;-72
2023/07/24 03:39:47;;;;;;;10.25;7.43;;;;;;;13.78;61.21;100171.69;4967092;28;20136;-72
2023/07/24 03:42:28;;;;;;;14.00;7.43;;;;;;;14.25;59.89;100175.63;4969101;28;20552;-73
2023/07/24 03:44:54;;;;;;;13.18;7.65;;;;;;;14.35;59.81;100168.81;4967272;28;21089;-71
2023/07/24 03:47:22;;;;;;;15.02;7.80;;;;;;;14.33;59.95;100168.06;4967208;28;20481;-70
2023/07/24 03:49:48;;;;;;;12.38;7.80;;;;;;;14.41;59.71;100170.22;4969115;28;20038;-71
2023/07/24 03:52:14;;;;;;;12.90;7.03;;;;;;;14.07;60.92;100182.09;4971433;28;20045;-71
2023/07/24 03:54:44;;;;;;;15.32;7.75;;;;;;;14.40;59.88;100178.19;4967451;28;20084;-65
2023/07/24 03:57:12;;;;;;;10.93;7.78;;;;;;;14.48;59.57;100187.28;4968363;28;20034;-70
2023/07/24 03:59:39;;;;;;;12.68;8.00;;;;;;;14.40;60.22;100186.06;4964547;28;20396;-69
2023/07/24 04:02:05;;;;;;;14.48;8.43;;;;;;;13.91;61.31;100180.47;4966800;28;20037;-69
2023/07/24 04:04:31;;;;;;;14.85;7.18;;;;;;;14.10;60.77;100187.16;4966609;28;20042;-71
2023/07/24 04:07:07;;;;;;;15.30;9.63;;;;;;;14.25;60.52;100188.75;4986999;28;20413;-69
2023/07/24 04:09:33;;;;;;;15.43;8.95;;;;;;;14.06;60.97;100190.94;4965945;28;20112;-67
2023/07/24 04:11:58;;;;;;;12.82;8.15;;;;;;;14.27;60.11;100197.38;4979378;28;20058;-67
2023/07/24 04:14:24;;;;;;;11.43;7.90;;;;;;;14.11;61.13;100183.59;4965772;28;20050;-67
2023/07/24 04:16:49;;;;;;;15.52;8.70;;;;;;;14.21;60.92;100184.69;4967746;28;20040;-66
2023/07/24 04:19:17;;;;;;;12.75;8.45;;;;;;;14.00;61.45;100180.81;4970579;28;20761;-67
2023/07/24 04:21:42;;;;;;;12.75;8.38;;;;;;;14.28;60.69;100185.94;4965776;28;20209;-67
2023/07/24 04:24:08;;;;;;;11.70;8.10;;;;;;;14.44;60.21;100180.53;4970319;28;20129;-73
2023/07/24 04:26:36;;;;;;;13.38;8.45;;;;;;;14.71;59.25;100187.50;4947606;28;20037;-70
2023/07/24 04:29:02;;;;;;;14.68;9.50;;;;;;;14.59;59.63;100183.94;4969016;28;20449;-67
2023/07/24 04:31:27;;;;;;;12.57;8.85;;;;;;;14.42;59.89;100186.84;4967609;28;20048;-66
2023/07/24 04:33:53;;;;;;;17.52;8.85;;;;;;;14.87;58.91;100182.84;4971760;28;20049;-69
2023/07/24 04:36:18;;;;;;;11.48;8.50;;;;;;;14.84;58.71;100177.81;4976004;28;20034;-68
2023/07/24 04:38:46;;;;;;;11.18;8.75;;;;;;;14.75;58.98;100176.66;4970778;28;20034;-69
2023/07/24 04:41:11;;;;;;;13.38;7.22;;;;;;;14.92;58.71;100177.28;4975828;28;20117;-67
2023/07/24 04:43:37;;;;;;;13.50;7.53;;;;;;;14.61;59.37;100179.38;4954820;28;20048;-66
2023/07/24 04:46:02;;;;;;;11.52;7.75;;;;;;;14.81;58.93;100179.81;4965432;28;20040;-69
2023/07/24 04:48:28;;;;;;;9.85;7.22;;;;;;;14.85;58.73;100158.44;4971317;28;20376;-69
2023/07/24 04:50:57;;;;;;;9.75;7.03;;;;;;;15.08;57.93;100163.88;4975084;28;20577;-66
2023/07/24 04:53:23;;;;;;;14.38;7.53;;;;;;;15.02;58.12;100159.91;4968374;28;20041;-68
2023/07/24 04:55:48;;;;;;;12.23;8.25;;;;;;;14.67;58.62;100154.47;4970038;28;20038;-68
2023/07/24 04:58:14;;;;;;;9.88;7.40;;;;;;;14.60;58.94;100147.94;4977764;28;20049;-66
2023/07/24 05:00:40;;;;;;;15.50;7.18;;;;;;;14.64;58.62;100146.78;4969381;28;20034;-68
2023/07/24 05:03:08;;;;;;;9.82;6.53;;;;;;;14.96;58.17;100144.53;4990914;28;20278;-69
2023/07/24 05:05:33;;;;;;;12.82;6.30;;;;;;;15.12;58.08;100139.03;4968375;28;20408;-70
2023/07/24 05:07:59;;;;;;;8.90;6.68;;;;;;;14.93;58.08;100134.25;4974841;28;20034;-68
2023/07/24 05:10:24;;;;;;;10.27;7.07;;;;;;;14.76;58.50;100133.59;4971102;28;20042;-68
2023/07/24 05:12:50;;;;;;;7.78;5.78;;;;;;;14.86;58.08;100139.09;4969495;28;20037;-70
2023/07/24 05:15:16;;;;;;;10.48;6.85;;;;;;;14.64;59.01;100134.47;4972281;28;20038;-66
2023/07/24 05:17:43;;;;;;;10.45;6.13;;;;;;;14.92;58.27;100143.91;4972301;28;20044;-66
2023/07/24 05:20:09;;;;;;;10.82;7.32;;;;;;;14.69;58.97;100153.41;4975603;28;20120;-66
2023/07/24 05:22:35;;;;;;;10.82;6.72;;;;;;;15.01;57.97;100147.69;4972024;28;20233;-71
2023/07/24 05:25:01;;;;;;;10.13;6.47;;;;;;;15.05;58.05;100143.06;4987084;28;20517;-68
2023/07/24 05:27:26;;;;;;;10.07;6.82;;;;;;;14.82;58.66;100128.88;4967850;28;20029;-70
2023/07/24 05:29:52;;;;;;;12.70;7.38;;;;;;;14.83;58.38;100127.94;4973891;28;20137;-70
2023/07/24 05:32:17;;;;;;;9.25;6.57;;;;;;;14.92;58.06;100135.16;4972705;28;20026;-68
2023/07/24 05:34:46;;;;;;;10.68;7.10;;;;;;;15.17;57.52;100137.78;4960796;28;21160;-71
2023/07/24 05:37:17;;;;;;;10.52;7.18;;;;;;;15.01;57.74;100124.00;4974096;28;20034;-67
2023/07/24 05:39:42;;;;;;;11.73;7.32;;;;;;;15.01;57.53;100108.22;4967944;28;20516;-66
2023/07/24 05:42:10;;;;;;;11.90;5.90;;;;;;;15.29;56.84;100108.91;4971954;28;20037;-70
2023/07/24 05:44:37;;;;;;;15.68;6.88;;;;;;;15.20;57.24;100114.81;4965369;28;20090;-69
2023/07/24 05:47:03;;;;;;;12.90;6.97;;;;;;;15.40;56.78;100116.03;4970547;28;20030;-70
2023/07/24 05:49:31;;;;;;;10.90;6.13;;;;;;;15.13;57.57;100115.25;4969680;28;20184;-73
2023/07/24 05:51:56;;;;;;;10.68;6.88;;;;;;;14.96;57.93;100120.84;4984229;28;20061;-69
2023/07/24 05:54:22;;;;;;;13.95;6.38;;;;;;;15.04;57.96;100113.28;4984738;28;20034;-70
2023/07/24 05:56:48;;;;;;;8.82;6.70;;;;;;;15.16;57.63;100114.19;4967211;28;20956;-71
2023/07/24 05:59:14;;;;;;;13.63;6.80;;;;;;;15.23;57.11;100109.34;4969584;28;20034;-70
2023/07/24 06:01:40;;;;;;;9.55;6.10;;;;;;;15.40;56.63;100111.63;4966568;28;20050;-70
2023/07/24 06:04:07;;;;;;;13.45;6.65;;;;;;;15.44;56.62;100117.47;4968580;28;20038;-69
2023/07/24 06:06:33;;;;;;;9.13;5.75;;;;;;;15.38;57.05;100126.69;4949622;28;20045;-68
2023/07/24 06:08:58;;;;;;;10.25;6.55;;;;;;;15.26;57.43;100117.88;4972477;28;20046;-70
2023/07/24 06:11:26;;;;;;;13.05;5.78;;;;;;;14.98;58.04;100113.69;4967833;28;20042;-71
2023/07/24 06:13:52;;;;;;;16.27;6.72;;;;;;;15.12;57.89;100126.72;4982670;28;20034;-70
2023/07/24 06:16:18;;;;;;;9.52;6.28;;;;;;;15.35;57.40;100121.66;4970420;28;20621;-69
2023/07/24 06:18:44;;;;;;;7.68;5.45;;;;;;;15.48;56.88;100117.19;4954606;28;20595;-69
2023/07/24 06:21:10;;;;;;;7.50;5.82;;;;;;;15.68;56.47;100123.59;4970274;28;20034;-69
2023/07/24 06:23:38;;;;;;;11.57;5.97;;;;;;;15.86;55.82;100129.28;4961504;28;20045;-70
2023/07/24 06:26:04;;;;;;;6.53;5.30;;;;;;;15.85;56.14;100117.09;4969773;28;20314;-70
2023/07/24 06:28:29;;;;;;;10.88;6.28;;;;;;;15.92;55.94;100126.22;4969719;28;20026;-70
2023/07/24 06:30:57;;;;;;;10.20;5.85;;;;;;;15.63;56.30;100127.53;4967175;28;20046;-71
2023/07/24 06:33:23;;;;;;;11.30;6.57;;;;;;;15.05;57.67;100114.94;4968191;28;20507;-68
2023/07/24 06:35:50;;;;;;;9.75;5.85;;;;;;;15.50;56.56;100115.25;4968201;28;20201;-73
2023/07/24 06:38:16;;;;;;;10.00;7.28;;;;;;;15.69;56.60;100116.56;4951796;28;20038;-70
2023/07/24 06:40:42;;;;;;;12.77;6.03;;;;;;;15.59;56.66;100109.34;4928281;28;20537;-69
2023/07/24 06:43:07;;;;;;;8.50;6.40;;;;;;;16.11;55.64;100112.53;4950498;28;20031;-67
2023/07/24 06:45:33;;;;;;;9.00;5.95;;;;;;;16.13;55.18;100112.41;4944110;28;20179;-67
2023/07/24 06:47:59;;;;;;;14.38;7.45;;;;;;;16.24;54.49;100120.34;4951813;28;20027;-70
2023/07/24 06:50:25;;;;;;;8.18;5.60;;;;;;;16.19;54.97;100119.84;4945892;28;20518;-70
2023/07/24 06:52:51;;;;;;;7.10;5.47;;;;;;;16.86;53.29;100113.84;4946395;28;20043;-71
2023/07/24 06:55:17;;;;;;;10.27;6.72;;;;;;;17.17;52.61;100117.53;4961344;28;20476;-69
2023/07/24 06:57:43;;;;;;;10.60;5.95;;;;;;;17.05;53.38;100118.50;4962151;28;20149;-68
2023/07/24 07:00:11;;;;;;;7.53;5.40;;;;;;;17.42;51.97;100116.38;4971509;28;20042;-68
2023/07/24 07:02:37;;;;;;;8.13;5.22;;;;;;;17.67;51.38;100121.50;4964442;28;20034;-65
2023/07/24 07:05:04;;;;;;;9.05;6.03;;;;;;;17.12;51.98;100127.63;4969263;28;20042;-68
2023/07/24 07:07:29;;;;;;;7.22;5.57;;;;;;;17.18;51.50;100131.56;4968076;28;20088;-69
2023/07/24 07:09:55;;;;;;;7.78;5.45;;;;;;;17.05;51.84;100128.25;4963760;28;20042;-70
2023/07/24 07:12:20;;;;;;;6.35;4.80;;;;;;;17.23;51.97;100127.59;4969707;28;20321;-69
2023/07/24 07:14:48;;;;;;;7.45;5.63;;;;;;;16.77;52.97;100125.94;4965851;28;20046;-69
2023/07/24 07:17:14;;;;;;;8.15;5.47;;;;;;;16.86;52.78;100120.91;4969793;28;20038;-70
2023/07/24 07:19:40;;;;;;;8.57;5.72;;;;;;;17.38;51.24;100122.03;4980202;28;20034;-69
2023/07/24 07:22:43;;;;;;;6.35;4.55;;;;;;;17.15;51.29;100114.16;4968321;28;20096;-69
2023/07/24 07:25:08;;;;;;;8.35;5.55;;;;;;;16.81;52.65;100111.56;4969094;28;20034;-69
2023/07/24 07:27:34;;;;;;;11.45;5.65;;;;;;;17.48;51.77;100107.16;4952618;28;20974;-69
2023/07/24 07:29:59;;;;;;;7.63;4.97;;;;;;;17.95;50.76;100107.69;4968894;28;20066;-69
2023/07/24 07:32:26;;;;;;;11.55;5.50;;;;;;;18.89;47.79;100103.22;4968676;28;20505;-69
2023/07/24 07:34:51;;;;;;;9.05;5.50;;;;;;;19.34;46.80;100106.41;4981299;28;20650;-68
2023/07/24 07:37:17;;;;;;;8.90;6.13;;;;;;;19.64;45.76;100108.97;4969643;28;20061;-69
2023/07/24 07:39:42;;;;;;;7.95;4.80;;;;;;;20.23;44.35;100098.34;4949205;28;20035;-68
2023/07/24 07:42:07;;;;;;;7.68;4.10;;;;;;;20.57;43.93;100095.16;4957015;28;20030;-69
2023/07/24 07:44:33;;;;;;;5.20;4.07;;;;;;;20.62;43.53;100103.50;4967672;28;20373;-69
2023/07/24 07:46:58;;;;;;;7.20;5.25;;;;;;;21.24;42.18;100104.63;4972387;28;20030;-68
2023/07/24 07:49:24;;;;;;;7.18;5.10;;;;;;;20.56;43.16;100098.81;4972041;28;20421;-71
2023/07/24 07:51:52;;;;;;;10.63;4.22;;;;;;;21.60;41.02;100109.16;4967979;28;20038;-70
2023/07/24 07:54:17;;;;;;;9.75;5.05;;;;;;;24.10;36.16;100101.78;4955623;28;20096;-69
2023/07/24 07:56:43;;;;;;;9.10;4.18;;;;;;;23.99;36.08;100096.78;4971991;28;20112;-69
2023/07/24 07:59:08;;;;;;;5.22;3.95;;;;;;;24.15;35.85;100088.75;4974311;28;20065;-69
2023/07/24 08:01:36;;;;;;;12.50;4.63;;;;;;;25.46;33.14;100092.72;4969689;28;21317;-70
2023/07/24 08:04:02;;;;;;;7.00;3.58;;;;;;;25.11;35.00;100089.63;4967874;28;20061;-70
2023/07/24 08:06:27;;;;;;;4.97;3.38;;;;;;;23.54;36.84;100085.59;4967470;28;20038;-70
2023/07/24 08:08:53;;;;;;;5.72;4.25;;;;;;;24.09;36.16;100086.75;4967947;28;20050;-70
2023/07/24 08:11:18;;;;;;;6.72;4.03;;;;;;;24.28;36.63;100087.38;4969556;28;20124;-69
2023/07/24 08:13:44;;;;;;;6.07;3.65;;;;;;;25.08;34.10;100084.63;4967884;28;20031;-70
2023/07/24 08:16:20;;;;;;;5.18;3.35;;;;;;;25.84;33.49;100079.41;4967910;28;20503;-69
2023/07/24 08:18:47;;;;;;;4.20;3.08;;;;;;;26.86;31.52;100073.47;4966900;28;20042;-69
2023/07/24 08:21:14;;;;;;;5.72;3.80;;;;;;;26.67;31.57;100075.72;4971094;28;20042;-69
2023/07/24 08:23:40;;;;;;;6.47;3.47;;;;;;;26.16;31.96;100086.34;4966313;28;20542;-69
2023/07/24 08:26:08;;;;;;;4.85;3.47;;;;;;;23.54;35.66;100076.75;4970905;28;20039;-69
2023/07/24 08:28:35;;;;;;;7.85;3.95;;;;;;;21.22;40.69;100095.13;4964130;28;20661;-71
2023/07/24 08:31:04;;;;;;;8.77;3.63;;;;;;;20.20;43.10;100098.59;4969765;28;20033;-70
2023/07/24 08:33:29;;;;;;;5.93;3.67;;;;;;;20.16;43.27;100092.72;4970072;28;20037;-69
2023/07/24 08:35:59;;;;;;;7.53;3.90;;;;;;;19.92;43.71;100088.72;4962024;28;20030;-69
2023/07/24 08:38:32;;;;;;;4.05;2.85;;;;;;;21.86;40.34;100086.13;4969884;28;20583;-69
2023/07/24 08:41:08;;;;;;;8.23;3.17;;;;;;;23.82;35.28;100070.06;4964462;28;20262;-69
2023/07/24 08:43:35;;;;;;;4.53;3.53;;;;;;;23.61;35.52;100072.41;4951521;28;20035;-69
2023/07/24 08:46:01;;;;;;;4.60;3.20;;;;;;;24.43;34.42;100067.00;4950456;28;20113;-70
2023/07/24 08:48:35;;;;;;;3.42;2.58;;;;;;;24.92;32.87;100076.66;4950708;28;20042;-70
2023/07/24 08:51:02;;;;;;;11.02;3.13;;;;;;;24.33;34.67;100079.72;4969041;28;20494;-68
2023/07/24 08:53:30;;;;;;;4.65;2.92;;;;;;;24.30;34.98;100070.19;4969456;28;20142;-70
2023/07/24 08:55:56;;;;;;;8.18;3.05;;;;;;;23.77;35.41;100080.44;4960541;28;20042;-70
2023/07/24 08:58:22;;;;;;;7.43;3.25;;;;;;;22.76;36.98;100080.53;4968869;28;20481;-69
2023/07/24 09:00:51;;;;;;;4.50;3.35;;;;;;;21.64;38.99;100081.28;4966679;28;20334;-70
2023/07/24 09:03:18;;;;;;;8.00;3.47;;;;;;;21.14;40.57;100072.81;4966407;28;20121;-68
2023/07/24 09:05:44;;;;;;;5.47;3.35;;;;;;;21.49;40.82;100076.50;4966435;28;20089;-69
2023/07/24 09:08:10;;;;;;;6.88;3.28;;;;;;;21.43;41.58;100076.25;4967418;28;20073;-69
2023/07/24 09:10:35;;;;;;;5.93;3.60;;;;;;;20.76;41.37;100071.19;4964040;28;20155;-68
2023/07/24 09:13:03;;;;;;;5.05;3.53;;;;;;;20.72;41.92;100083.06;4968539;28;20038;-69
2023/07/24 09:15:49;;;;;;;4.28;3.15;;;;;;;20.40;42.61;100079.03;4967608;28;20751;-69
2023/07/24 09:18:16;;;;;;;5.90;3.92;;;;;;;20.84;41.90;100076.63;4967598;28;20137;-69
2023/07/24 09:20:43;;;;;;;8.20;3.42;;;;;;;21.18;40.54;100076.00;4971372;28;20385;-69
2023/07/24 09:23:10;;;;;;;5.35;2.78;;;;;;;20.48;41.36;100073.81;4969918;28;20156;-69
2023/07/24 09:25:37;;;;;;;7.07;2.95;;;;;;;20.37;41.34;100067.84;4965018;28;20047;-69
2023/07/24 09:28:14;;;;;;;5.85;3.22;;;;;;;20.58;42.10;100075.59;4971026;28;20038;-70
2023/07/24 09:30:40;;;;;;;8.75;3.03;;;;;;;21.33;40.51;100078.97;4971158;28;20044;-70
2023/07/24 09:33:06;;;;;;;4.60;3.15;;;;;;;20.41;41.81;100072.72;4969831;28;20035;-70
2023/07/24 09:35:32;;;;;;;9.20;2.67;;;;;;;20.73;40.54;100071.50;4970946;28;20431;-69
2023/07/24 09:38:09;;;;;;;5.38;2.58;;;;;;;21.35;39.57;100077.84;4968362;28;20093;-70
2023/07/24 09:40:40;;;;;;;5.90;3.47;;;;;;;22.59;38.17;100068.97;4969055;28;21516;-71
2023/07/24 09:43:27;;;;;;;10.38;2.72;;;;;;;22.58;37.54;100068.13;4973143;28;20034;-69
2023/07/24 09:45:53;;;;;;;3.45;2.72;;;;;;;22.56;38.06;100067.47;4985129;28;21109;-70
2023/07/24 09:48:24;;;;;;;5.78;3.15;;;;;;;22.54;37.34;100066.78;4968841;28;20034;-69
2023/07/24 09:50:57;;;;;;;7.15;3.47;;;;;;;21.82;38.89;100065.28;4967774;28;20053;-69
2023/07/24 09:53:32;;;;;;;9.38;3.28;;;;;;;21.14;40.58;100062.19;4967707;28;20078;-68
2023/07/24 09:56:01;;;;;;;7.38;3.22;;;;;;;22.74;37.77;100056.75;4951284;28;20764;-69
2023/07/24 09:58:28;;;;;;;7.50;4.03;;;;;;;21.86;39.23;100061.34;4967160;28;20046;-69
2023/07/24 10:00:54;;;;;;;9.52;3.05;;;;;;;22.20;38.77;100068.59;4963464;28;20141;-69
2023/07/24 10:03:21;;;;;;;6.45;3.67;;;;;;;21.77;39.34;100069.25;4962865;28;20125;-69
2023/07/24 10:05:48;;;;;;;6.97;3.63;;;;;;;21.30;39.61;100066.81;4964190;28;20054;-68
2023/07/24 10:08:18;;;;;;;4.55;2.63;;;;;;;20.26;42.04;100068.84;4965612;28;20074;-68
2023/07/24 10:10:44;;;;;;;3.42;2.72;;;;;;;20.11;41.83;100068.47;4967041;28;20046;-68
2023/07/24 10:13:14;;;;;;;8.18;4.18;;;;;;;19.51;43.56;100065.97;4953221;28;20557;-69
2023/07/24 10:15:45;;;;;;;7.00;3.45;;;;;;;19.95;42.55;100069.06;4980270;28;20068;-69
2023/07/24 10:18:10;;;;;;;6.88;3.53;;;;;;;19.87;43.41;100061.78;4966597;28;20096;-69
2023/07/24 10:20:38;;;;;;;8.05;4.22;;;;;;;20.62;41.48;100059.25;4964257;28;20066;-69
2023/07/24 10:23:05;;;;;;;7.10;3.67;;;;;;;21.86;39.77;100066.66;4969968;28;20425;-69
2023/07/24 10:25:35;;;;;;;6.25;3.40;;;;;;;21.69;39.86;100060.38;4950474;28;20140;-69
2023/07/24 10:28:10;;;;;;;4.85;2.55;;;;;;;21.77;39.52;100055.94;4941009;28;20094;-69
2023/07/24 10:30:38;;;;;;;8.75;3.55;;;;;;;21.16;40.74;100043.44;4959298;28;20084;-69
2023/07/24 10:33:10;;;;;;;9.60;4.38;;;;;;;21.29;40.71;100029.78;4963992;28;20137;-68
2023/07/24 10:35:51;;;;;;;5.63;3.30;;;;;;;21.52;40.81;100040.81;4965461;28;20068;-69
2023/07/24 10:38:17;;;;;;;5.67;3.10;;;;;;;22.42;38.20;100035.25;4962719;28;20476;-70
2023/07/24 10:40:45;;;;;;;6.93;3.67;;;;;;;20.46;41.94;100035.13;4964507;28;20282;-69
2023/07/24 10:43:14;;;;;;;5.03;3.42;;;;;;;19.63;42.93;100038.38;4968916;28;20037;-68
2023/07/24 10:45:41;;;;;;;11.75;3.80;;;;;;;20.57;42.35;100047.38;4966792;28;20493;-69
2023/07/24 10:48:07;;;;;;;7.00;3.35;;;;;;;21.67;40.11;100036.63;4963257;28;20030;-69
2023/07/24 10:50:43;;;;;;;6.53;3.83;;;;;;;20.78;41.00;100033.88;4966358;28;20061;-69
2023/07/24 10:53:10;;;;;;;8.10;3.10;;;;;;;21.03;40.83;100048.28;4967630;28;20544;-68
2023/07/24 10:55:36;;;;;;;8.23;3.03;;;;;;;21.31;39.54;100041.94;4961637;28;20125;-69
2023/07/24 10:58:01;;;;;;;4.72;2.83;;;;;;;21.88;39.19;100040.75;4966992;28;20038;-69
2023/07/24 11:00:27;;;;;;;4.50;3.33;;;;;;;21.85;38.94;100044.56;4965351;28;20519;-69
2023/07/24 11:02:54;;;;;;;5.88;2.78;;;;;;;22.21;38.04;100052.47;4965610;28;20566;-69
2023/07/24 11:05:21;;;;;;;3.92;2.45;;;;;;;22.72;37.58;100057.91;4950341;28;21191;-70
2023/07/24 11:07:47;;;;;;;3.88;2.30;;;;;;;21.77;37.89;100047.97;4945491;28;20502;-69
2023/07/24 11:10:18;;;;;;;4.32;2.60;;;;;;;23.75;35.80;100045.09;4950778;28;20039;-68
2023/07/24 11:12:46;;;;;;;6.20;2.17;;;;;;;23.86;35.19;100046.59;4947933;28;20412;-68
2023/07/24 11:15:13;;;;;;;6.35;2.28;;;;;;;22.92;35.41;100048.63;4943670;28;20572;-68
2023/07/24 11:17:42;;;;;;;4.75;2.58;;;;;;;22.01;38.11;100049.16;4940230;28;20772;-69
2023/07/24 11:20:15;;;;;;;4.82;1.90;;;;;;;22.05;38.21;100039.88;4945775;28;20043;-68
2023/07/24 11:22:43;;;;;;;5.07;2.72;;;;;;;22.21;38.38;100043.66;4944552;28;20127;-68
2023/07/24 11:25:10;;;;;;;7.35;2.70;;;;;;;22.76;36.49;100048.56;4961831;28;20130;-69
2023/07/24 11:27:43;;;;;;;3.47;2.35;;;;;;;23.59;35.47;100035.25;4944702;28;20042;-69
2023/07/24 11:30:10;;;;;;;5.88;2.70;;;;;;;23.74;35.45;100031.91;4960003;28;20042;-69
2023/07/24 11:32:39;;;;;;;3.30;2.50;;;;;;;24.24;34.89;100034.34;4960984;28;20034;-69
2023/07/24 11:35:04;;;;;;;3.80;2.00;;;;;;;24.43;33.20;100034.97;4965101;28;20109;-70
2023/07/24 11:37:31;;;;;;;5.55;3.00;;;;;;;24.33;33.60;100034.31;4965238;28;20030;-68
2023/07/24 11:40:10;;;;;;;8.23;2.85;;;;;;;23.75;34.37;100022.91;4967129;28;20034;-68
2023/07/24 11:42:40;;;;;;;4.00;2.88;;;;;;;22.63;35.54;100035.69;4963286;28;20070;-69
2023/07/24 11:45:07;;;;;;;7.05;2.20;;;;;;;21.70;37.67;100036.28;4964273;28;20038;-69
2023/07/24 11:47:44;;;;;;;7.68;2.88;;;;;;;21.62;40.33;100041.53;4965459;28;20042;-69
2023/07/24 11:50:14;;;;;;;5.45;3.28;;;;;;;22.33;39.47;100039.72;4965242;28;20680;-68
2023/07/24 11:52:43;;;;;;;3.63;2.72;;;;;;;23.48;39.69;100022.25;4976444;28;20125;-69
2023/07/24 11:55:09;;;;;;;4.85;1.50;;;;;;;23.06;36.41;100023.19;4960784;28;20046;-69
2023/07/24 11:57:35;;;;;;;2.65;1.02;;;;;;;23.04;34.51;100019.03;4946672;28;20046;-68
2023/07/24 12:00:00;;;;;;;2.95;0.82;;;;;;;22.91;33.72;100014.97;4959076;28;20030;-69
2023/07/24 12:02:29;;;;;;;1.83;0.70;;;;;;;22.55;33.30;100012.50;4964902;28;20548;-69
2023/07/24 12:04:57;;;;;;;2.47;0.70;;;;;;;22.40;33.92;100022.09;4962441;28;20042;-69
2023/07/24 12:07:33;;;;;;;2.45;0.40;;;;;;;22.46;32.11;100025.97;4962946;28;20045;-69
2023/07/24 12:10:03;;;;;;;1.05;0.22;;;;;;;22.93;32.92;100022.81;4981876;28;20493;-69